NK63 weather

CLOSED Mercy Hospital Heliport
Buffalo, New York, United States

Public forecast

Using degrees Fahrenheit for public forecast. Weather courtesy of forecast.io.

Closest aviation weather report (METAR) to Mercy Hospital Heliport

Closest report is Buffalo Niagara International Airport, 6.6 nm (12.3 km) NNE. Retrieved 2019/10/20 22:54 UTC (45 minutes ago):

KBUF 202254Z 00000KT 10SM FEW180 FEW250 16/05 A2993 RMK AO2 SLP138 T01560050

Closest aviation forecast (TAF) to Mercy Hospital Heliport

Closest forecast is Buffalo Niagara International Airport, 6.6 nm (12.3 km) NNE. Retrieved 2019/10/20 18:42 UTC (5 hours ago):

TAF KBUF 201739Z 2018/2118 25005KT P6SM SCT200 FM202100 13005KT P6SM SCT250